createdAt,value
2018-06-12T00:01:50.865Z,36.28
2018-06-12T00:04:23.179Z,37.99
2018-06-12T00:06:55.546Z,36.65
2018-06-12T00:09:28.505Z,37.38
2018-06-12T00:12:00.649Z,37.49
2018-06-12T00:14:33.468Z,38.22
2018-06-12T00:17:06.290Z,38.21
2018-06-12T00:19:38.586Z,37.15
2018-06-12T00:22:10.772Z,37.47
2018-06-12T00:24:43.344Z,37.24
2018-06-12T00:27:15.696Z,38.05
2018-06-12T00:29:48.826Z,37.01
2018-06-12T00:32:21.345Z,36.35
2018-06-12T00:34:54.182Z,37.30
2018-06-12T00:37:26.410Z,38.00
2018-06-12T00:39:59.944Z,37.75
2018-06-12T00:42:32.320Z,38.27
2018-06-12T00:45:05.325Z,38.07
2018-06-12T00:47:38.394Z,37.30
2018-06-12T00:50:11.470Z,38.16
2018-06-12T00:52:44.233Z,38.41
2018-06-12T00:55:16.462Z,38.68
2018-06-12T00:57:48.881Z,38.44
2018-06-12T01:00:20.926Z,37.22
2018-06-12T01:02:53.800Z,39.08
2018-06-12T01:05:27.244Z,38.99
2018-06-12T01:08:00.267Z,38.51
2018-06-12T01:10:32.738Z,38.89
2018-06-12T01:13:05.681Z,40.05
2018-06-12T01:15:37.615Z,39.64
2018-06-12T01:18:09.730Z,39.93
2018-06-12T01:20:42.630Z,40.59
2018-06-12T01:23:15.958Z,40.05
2018-06-12T01:25:48.326Z,39.67
2018-06-12T01:28:20.496Z,39.37
2018-06-12T01:30:53.231Z,39.91
2018-06-12T01:33:26.392Z,40.37
2018-06-12T01:35:59.394Z,40.93
2018-06-12T01:38:31.875Z,40.88
2018-06-12T01:41:05.121Z,39.38
2018-06-12T01:43:38.477Z,39.94
2018-06-12T01:46:11.865Z,40.97
2018-06-12T01:48:44.767Z,40.72
2018-06-12T01:51:17.375Z,40.39
2018-06-12T01:53:49.730Z,40.18
2018-06-12T01:56:23.080Z,40.44
2018-06-12T01:58:55.742Z,41.27
2018-06-12T02:01:29.108Z,39.00
2018-06-12T02:04:01.325Z,40.32
2018-06-12T02:06:33.980Z,40.97
2018-06-12T02:09:08.015Z,40.96
2018-06-12T02:11:40.593Z,40.83
2018-06-12T02:14:14.391Z,41.61
2018-06-12T02:16:47.330Z,41.10
2018-06-12T02:19:19.814Z,41.56
2018-06-12T02:21:52.443Z,41.61
2018-06-12T02:24:24.664Z,42.24
2018-06-12T02:26:57.879Z,41.20
2018-06-12T02:29:30.594Z,42.52
2018-06-12T02:32:03.901Z,42.16
2018-06-12T02:34:37.362Z,42.90
2018-06-12T02:37:11.334Z,42.95
2018-06-12T02:39:44.247Z,41.46
2018-06-12T02:42:17.418Z,43.14
2018-06-12T02:44:49.769Z,43.16
2018-06-12T02:47:23.736Z,42.31
2018-06-12T02:49:56.349Z,42.11
2018-06-12T02:52:29.136Z,43.11
2018-06-12T02:55:01.615Z,42.08
2018-06-12T02:57:34.707Z,42.61
2018-06-12T03:00:07.955Z,42.03
2018-06-12T03:02:40.596Z,43.68
2018-06-12T03:05:13.763Z,43.12
2018-06-12T03:07:46.578Z,43.09
2018-06-12T03:10:19.020Z,43.12
2018-06-12T03:12:53.170Z,43.18
2018-06-12T03:15:26.211Z,43.10
2018-06-12T03:17:58.733Z,43.42
2018-06-12T03:20:40.373Z,42.53
2018-06-12T03:23:13.381Z,43.23
2018-06-12T03:25:46.683Z,42.50
2018-06-12T03:28:19.097Z,42.32
2018-06-12T03:30:51.645Z,41.47
2018-06-12T03:33:24.972Z,42.02
2018-06-12T03:35:57.051Z,41.04
2018-06-12T03:38:30.334Z,40.64
2018-06-12T03:41:04.317Z,41.21
2018-06-12T03:43:39.604Z,42.16
2018-06-12T03:46:12.344Z,41.74
2018-06-12T03:48:45.205Z,41.54
2018-06-12T03:51:22.880Z,41.15
2018-06-12T03:53:58.493Z,40.23
2018-06-12T03:56:31.774Z,41.48
2018-06-12T03:59:07.400Z,41.09
2018-06-12T04:01:39.821Z,40.58
2018-06-12T04:04:12.723Z,40.59
2018-06-12T04:06:49.862Z,41.20
2018-06-12T04:09:22.491Z,40.04
2018-06-12T04:11:58.214Z,40.68
2018-06-12T04:14:39.406Z,40.19
2018-06-12T04:17:11.997Z,40.55
2018-06-12T04:19:45.815Z,40.17
2018-06-12T04:22:24.720Z,41.47
2018-06-12T04:25:00.096Z,40.78
2018-06-12T04:27:33.435Z,40.64
2018-06-12T04:30:05.730Z,39.77
2018-06-12T04:32:40.869Z,40.53
2018-06-12T04:35:14.061Z,40.59
2018-06-12T04:37:46.539Z,39.68
2018-06-12T04:40:22.024Z,40.43
2018-06-12T04:42:55.295Z,39.61
2018-06-12T04:45:32.596Z,39.29
2018-06-12T04:48:08.660Z,39.76
2018-06-12T04:50:44.876Z,39.26
2018-06-12T04:53:19.330Z,39.59
2018-06-12T04:55:52.356Z,40.57
2018-06-12T04:58:27.066Z,40.61
2018-06-12T05:01:03.006Z,39.79
2018-06-12T05:03:35.832Z,39.75
2018-06-12T05:06:10.466Z,40.44
2018-06-12T05:08:45.629Z,39.63
2018-06-12T05:11:21.176Z,40.04
2018-06-12T05:13:56.062Z,39.36
2018-06-12T05:16:28.685Z,39.89
2018-06-12T05:19:04.330Z,38.81
2018-06-12T05:21:37.413Z,39.84
2018-06-12T05:24:17.208Z,39.76
2018-06-12T05:26:50.264Z,42.06
2018-06-12T05:29:24.432Z,41.63
2018-06-12T05:31:56.872Z,40.80
2018-06-12T05:34:29.911Z,40.51
2018-06-12T05:37:02.444Z,40.50
2018-06-12T05:39:34.694Z,41.41
2018-06-12T05:42:07.192Z,41.26
2018-06-12T05:44:41.257Z,40.46
2018-06-12T05:47:14.333Z,41.03
2018-06-12T05:49:47.562Z,40.79
2018-06-12T05:52:20.162Z,40.08
2018-06-12T05:54:52.754Z,39.97
2018-06-12T05:57:26.500Z,40.82
2018-06-12T05:59:58.792Z,39.61
2018-06-12T06:02:31.056Z,40.18
2018-06-12T06:05:03.714Z,39.90
2018-06-12T06:07:36.449Z,40.34
2018-06-12T06:10:08.747Z,39.64
2018-06-12T06:12:41.070Z,40.32
2018-06-12T06:15:13.775Z,39.38
2018-06-12T06:17:46.574Z,39.83
2018-06-12T06:20:19.324Z,39.11
2018-06-12T06:22:52.042Z,39.62
2018-06-12T06:25:24.177Z,39.10
2018-06-12T06:27:57.185Z,39.45
2018-06-12T06:30:29.836Z,39.31
2018-06-12T06:33:03.551Z,39.50
2018-06-12T06:35:37.048Z,38.68
2018-06-12T06:38:09.250Z,39.13
2018-06-12T06:40:41.670Z,38.13
2018-06-12T06:43:14.485Z,38.67
2018-06-12T06:45:49.223Z,38.61
2018-06-12T06:48:22.497Z,38.95
2018-06-12T06:50:55.362Z,39.10
2018-06-12T06:53:28.262Z,38.02
2018-06-12T06:56:01.689Z,38.27
2018-06-12T06:58:34.834Z,38.85
2018-06-12T07:01:07.343Z,38.77
2018-06-12T07:03:40.541Z,37.91
2018-06-12T07:06:12.626Z,38.47
2018-06-12T07:08:46.721Z,40.12
2018-06-12T07:11:19.441Z,39.72
2018-06-12T07:13:52.512Z,39.25
2018-06-12T07:16:25.821Z,38.72
2018-06-12T07:18:58.444Z,38.56
2018-06-12T07:21:31.586Z,38.47
2018-06-12T07:24:04.839Z,39.37
2018-06-12T07:26:37.668Z,39.54
2018-06-12T07:29:10.895Z,38.25
2018-06-12T07:31:45.352Z,39.18
2018-06-12T07:34:18.713Z,39.44
2018-06-12T07:36:51.134Z,39.24
2018-06-12T07:39:23.267Z,38.90
2018-06-12T07:41:56.315Z,38.79
2018-06-12T07:44:29.961Z,38.50
2018-06-12T07:47:02.811Z,39.46
2018-06-12T07:49:35.937Z,39.55
2018-06-12T07:52:09.109Z,38.73
2018-06-12T07:54:41.724Z,39.35
2018-06-12T07:57:14.751Z,38.92
2018-06-12T07:59:47.617Z,39.60
2018-06-12T08:02:19.785Z,39.13
2018-06-12T08:04:51.952Z,37.87
2018-06-12T08:07:24.423Z,37.84
2018-06-12T08:09:57.557Z,38.75
2018-06-12T08:12:30.352Z,37.70
2018-06-12T08:15:03.224Z,39.24
2018-06-12T08:17:35.562Z,38.76
2018-06-12T08:20:08.589Z,38.35
2018-06-12T08:22:40.857Z,38.29
2018-06-12T08:25:14.070Z,37.46
2018-06-12T08:27:47.537Z,38.21
2018-06-12T08:30:20.344Z,38.34
2018-06-12T08:32:52.601Z,38.66
2018-06-12T08:35:25.705Z,38.28
2018-06-12T08:37:58.631Z,38.70
2018-06-12T08:40:31.664Z,36.52
2018-06-12T08:43:04.710Z,37.00
2018-06-12T08:45:37.402Z,38.40
2018-06-12T08:48:10.403Z,37.45
2018-06-12T08:50:43.213Z,36.87
2018-06-12T08:53:15.590Z,37.65
2018-06-12T08:55:47.915Z,37.87
2018-06-12T08:58:20.824Z,36.97
2018-06-12T09:00:54.049Z,36.95
2018-06-12T09:03:26.651Z,35.67
2018-06-12T09:05:59.913Z,35.48
2018-06-12T09:08:32.265Z,36.25
2018-06-12T09:11:06.390Z,34.51
2018-06-12T09:13:39.733Z,34.23
2018-06-12T09:16:12.258Z,34.18
2018-06-12T09:18:46.050Z,35.36
2018-06-12T09:21:19.128Z,33.75
2018-06-12T09:23:51.808Z,34.14
2018-06-12T09:26:24.712Z,34.39
2018-06-12T09:28:57.576Z,34.43
2018-06-12T09:31:30.372Z,34.86
2018-06-12T09:34:03.525Z,34.74
2018-06-12T09:36:37.128Z,33.22
2018-06-12T09:39:11.971Z,32.95
2018-06-12T09:41:46.247Z,32.31
2018-06-12T09:44:19.405Z,33.10
2018-06-12T09:46:52.922Z,33.13
2018-06-12T09:49:28.055Z,33.35
2018-06-12T09:52:00.865Z,32.89
2018-06-12T09:54:33.650Z,31.94
2018-06-12T09:57:08.042Z,32.44
2018-06-12T09:59:41.695Z,32.93
2018-06-12T10:02:14.312Z,32.42
2018-06-12T10:04:47.262Z,33.03
2018-06-12T10:07:19.810Z,33.38
2018-06-12T10:09:52.193Z,31.32
2018-06-12T10:12:25.808Z,32.18
2018-06-12T10:14:58.803Z,32.37
2018-06-12T10:17:32.963Z,31.81
2018-06-12T10:20:05.854Z,30.52
2018-06-12T10:22:39.265Z,30.59
2018-06-12T10:25:11.709Z,31.53
2018-06-12T10:27:44.564Z,32.30
2018-06-12T10:30:18.011Z,31.93
2018-06-12T10:32:50.947Z,31.69
2018-06-12T10:35:23.415Z,32.18
2018-06-12T10:37:56.700Z,32.14
2018-06-12T10:40:29.159Z,32.68
2018-06-12T10:43:02.651Z,32.20
2018-06-12T10:46:06.162Z,31.90
2018-06-12T10:48:39.329Z,31.25
2018-06-12T10:51:13.135Z,30.73
2018-06-12T10:53:46.561Z,32.31
2018-06-12T10:56:19.550Z,31.34
2018-06-12T10:58:52.645Z,30.84
2018-06-12T11:01:25.612Z,31.25
2018-06-12T11:03:58.435Z,31.32
2018-06-12T11:06:30.615Z,31.40
2018-06-12T11:09:03.435Z,30.79
2018-06-12T11:11:35.925Z,31.74
2018-06-12T11:14:08.159Z,30.60
2018-06-12T11:16:41.311Z,31.80
2018-06-12T11:19:14.715Z,31.93
2018-06-12T11:21:47.899Z,31.34
2018-06-12T11:24:20.983Z,30.33
2018-06-12T11:26:54.182Z,31.79
2018-06-12T11:29:28.041Z,30.49
2018-06-12T11:32:00.969Z,31.63
2018-06-12T11:34:33.767Z,30.35
2018-06-12T11:37:06.200Z,31.26
2018-06-12T11:39:39.105Z,30.60
2018-06-12T11:42:12.292Z,31.17
2018-06-12T11:44:45.792Z,30.15
2018-06-12T11:47:18.386Z,31.03
2018-06-12T11:49:51.837Z,29.85
2018-06-12T11:52:23.917Z,29.68
2018-06-12T11:54:57.293Z,30.83
2018-06-12T11:57:29.516Z,30.63
2018-06-12T12:00:02.333Z,29.94
2018-06-12T12:02:34.826Z,29.83
2018-06-12T12:05:08.333Z,30.04
2018-06-12T12:07:41.864Z,30.52
2018-06-12T12:10:16.282Z,29.81
2018-06-12T12:12:49.396Z,30.50
2018-06-12T12:15:22.265Z,29.26
2018-06-12T12:17:54.334Z,29.71
2018-06-12T12:20:26.789Z,30.18
2018-06-12T12:22:59.441Z,29.80
2018-06-12T12:25:32.203Z,30.13
2018-06-12T12:28:05.343Z,30.35
2018-06-12T12:30:38.315Z,29.48
2018-06-12T12:33:11.215Z,29.82
2018-06-12T12:35:43.685Z,29.51
2018-06-12T12:38:16.143Z,29.67
2018-06-12T12:40:48.578Z,30.24
2018-06-12T12:43:21.844Z,30.05
2018-06-12T12:45:56.700Z,30.13
2018-06-12T12:48:30.055Z,29.79
2018-06-12T12:51:03.471Z,29.11
2018-06-12T12:53:35.975Z,29.91
2018-06-12T12:56:08.357Z,30.20
2018-06-12T12:58:41.835Z,29.99
2018-06-12T13:01:14.359Z,29.07
2018-06-12T13:03:48.331Z,29.50
2018-06-12T13:06:21.540Z,29.76
2018-06-12T13:08:54.052Z,29.92
2018-06-12T13:11:27.127Z,29.47
2018-06-12T13:13:59.196Z,28.73
2018-06-12T13:16:32.243Z,29.37
2018-06-12T13:19:04.417Z,29.72
2018-06-12T13:21:36.602Z,29.32
2018-06-12T13:24:09.499Z,28.73
2018-06-12T13:26:42.991Z,29.87
2018-06-12T13:29:15.915Z,29.90
2018-06-12T13:31:48.674Z,28.19
2018-06-12T13:34:22.149Z,28.78
2018-06-12T13:36:54.771Z,29.23
2018-06-12T13:39:27.339Z,28.78
2018-06-12T13:42:00.673Z,28.31
2018-06-12T13:44:33.883Z,29.10
2018-06-12T13:47:07.320Z,28.94
2018-06-12T13:49:39.778Z,28.86
2018-06-12T13:52:12.730Z,28.48
2018-06-12T13:54:45.771Z,27.96
2018-06-12T13:57:18.323Z,28.53
2018-06-12T13:59:50.972Z,28.33
2018-06-12T14:02:24.175Z,28.31
2018-06-12T14:04:56.961Z,28.47
2018-06-12T14:07:29.467Z,29.44
2018-06-12T14:10:02.051Z,29.26
2018-06-12T14:12:35.301Z,28.32
2018-06-12T14:15:08.529Z,28.90
2018-06-12T14:17:41.792Z,29.61
2018-06-12T14:20:14.535Z,30.34
2018-06-12T14:22:47.173Z,29.85
2018-06-12T14:25:20.273Z,30.51
2018-06-12T14:27:52.901Z,30.32
2018-06-12T14:30:25.820Z,29.55
2018-06-12T14:32:59.207Z,30.29
2018-06-12T14:35:31.405Z,30.47
2018-06-12T14:38:04.496Z,30.46
2018-06-12T14:40:37.554Z,29.85
2018-06-12T14:43:10.332Z,29.61
2018-06-12T14:45:42.829Z,30.40
2018-06-12T14:48:16.818Z,30.01
2018-06-12T14:50:49.669Z,30.05
2018-06-12T14:53:22.689Z,30.28
2018-06-12T14:55:55.268Z,30.95
2018-06-12T14:58:27.688Z,31.11
2018-06-12T15:01:00.496Z,30.62
2018-06-12T15:03:33.808Z,30.65
2018-06-12T15:06:06.673Z,30.95
2018-06-12T15:08:39.526Z,31.25
2018-06-12T15:11:12.540Z,30.21
2018-06-12T15:13:45.872Z,31.29
2018-06-12T15:16:18.853Z,30.40
2018-06-12T15:18:51.506Z,30.36
2018-06-12T15:21:24.677Z,31.47
2018-06-12T15:23:57.331Z,30.54
2018-06-12T15:26:29.816Z,30.49
2018-06-12T15:29:02.575Z,31.71
2018-06-12T15:31:35.780Z,31.58
2018-06-12T15:34:08.831Z,30.96
2018-06-12T15:36:41.118Z,31.47
2018-06-12T15:39:14.030Z,31.29
2018-06-12T15:41:47.433Z,31.30
2018-06-12T15:44:21.059Z,31.42
2018-06-12T15:46:53.887Z,31.97
2018-06-12T15:49:27.819Z,31.77
2018-06-12T15:52:00.930Z,31.22
2018-06-12T15:54:33.263Z,31.05
2018-06-12T15:57:05.924Z,30.79
2018-06-12T15:59:38.666Z,30.79
2018-06-12T16:02:10.629Z,30.97
2018-06-12T16:04:43.604Z,30.13
2018-06-12T16:07:16.986Z,30.45
2018-06-12T16:09:50.311Z,30.08
2018-06-12T16:12:24.428Z,29.16
2018-06-12T16:14:56.969Z,29.97
2018-06-12T16:17:30.093Z,30.86
2018-06-12T16:20:03.380Z,30.48
2018-06-12T16:22:36.352Z,30.56
2018-06-12T16:25:09.695Z,29.61
2018-06-12T16:27:42.525Z,29.95
2018-06-12T16:30:15.385Z,30.07
2018-06-12T16:32:48.270Z,29.63
2018-06-12T16:35:21.353Z,29.42
2018-06-12T16:37:54.435Z,29.00
2018-06-12T16:40:27.060Z,29.55
2018-06-12T16:43:00.370Z,30.36
2018-06-12T16:45:33.351Z,30.08
2018-06-12T16:48:06.779Z,29.81
2018-06-12T16:50:39.443Z,30.31
2018-06-12T16:53:12.193Z,29.79
2018-06-12T16:55:44.910Z,29.89
2018-06-12T16:58:17.470Z,29.37
2018-06-12T17:00:51.707Z,30.28
2018-06-12T17:03:24.245Z,29.50
2018-06-12T17:05:56.499Z,30.52
2018-06-12T17:08:29.092Z,30.58
2018-06-12T17:11:01.414Z,30.14
2018-06-12T17:13:35.071Z,29.58
2018-06-12T17:16:07.749Z,30.17
2018-06-12T17:18:40.396Z,29.88
2018-06-12T17:21:13.167Z,30.35
2018-06-12T17:23:45.883Z,28.72
2018-06-12T17:26:19.381Z,29.47
2018-06-12T17:28:52.417Z,30.42
2018-06-12T17:31:25.193Z,30.24
2018-06-12T17:33:57.722Z,29.58
2018-06-12T17:36:30.649Z,30.25
2018-06-12T17:39:03.807Z,30.13
2018-06-12T17:41:36.178Z,29.65
2018-06-12T17:44:09.043Z,29.89
2018-06-12T17:46:42.654Z,30.60
2018-06-12T17:49:15.607Z,30.24
2018-06-12T17:51:48.540Z,30.32
2018-06-12T17:54:20.803Z,29.52
2018-06-12T17:56:54.326Z,29.93
2018-06-12T17:59:27.211Z,29.87
2018-06-12T18:02:00.853Z,30.34
2018-06-12T18:04:33.718Z,30.14
2018-06-12T18:07:06.445Z,30.93
2018-06-12T18:09:39.068Z,30.38
2018-06-12T18:12:11.868Z,29.84
2018-06-12T18:14:44.417Z,30.93
2018-06-12T18:17:17.064Z,30.94
2018-06-12T18:19:54.321Z,30.97
2018-06-12T18:22:26.754Z,30.95
2018-06-12T18:25:00.544Z,30.43
2018-06-12T18:27:34.190Z,30.28
2018-06-12T18:30:07.160Z,30.55
2018-06-12T18:32:40.411Z,30.50
2018-06-12T18:35:13.178Z,31.22
2018-06-12T18:37:46.472Z,31.57
2018-06-12T18:40:19.487Z,31.23
2018-06-12T18:42:52.543Z,31.81
2018-06-12T18:45:25.526Z,31.08
2018-06-12T18:47:58.180Z,31.31
2018-06-12T18:50:30.458Z,31.82
2018-06-12T18:53:02.792Z,32.37
2018-06-12T18:55:35.432Z,31.28
2018-06-12T18:58:08.018Z,30.70
2018-06-12T19:00:40.777Z,31.68
2018-06-12T19:03:15.222Z,31.68
2018-06-12T19:05:48.247Z,31.00
2018-06-12T19:08:20.683Z,32.43
2018-06-12T19:10:53.092Z,31.29
2018-06-12T19:13:26.574Z,31.46
2018-06-12T19:15:58.637Z,31.42
2018-06-12T19:18:31.114Z,32.06
2018-06-12T19:21:03.385Z,31.22
2018-06-12T19:23:36.223Z,31.42
2018-06-12T19:26:09.432Z,31.89
2018-06-12T19:28:42.430Z,31.67
2018-06-12T19:31:15.061Z,32.90
2018-06-12T19:33:47.916Z,32.91
2018-06-12T19:36:21.029Z,31.93
2018-06-12T19:38:54.036Z,31.70
2018-06-12T19:41:26.516Z,31.79
2018-06-12T19:44:00.049Z,32.07
2018-06-12T19:46:34.109Z,32.52
2018-06-12T19:49:07.233Z,30.89
2018-06-12T19:51:39.642Z,31.03
2018-06-12T19:54:12.400Z,31.21
2018-06-12T19:56:45.021Z,32.14
2018-06-12T19:59:17.381Z,31.70
2018-06-12T20:01:49.970Z,31.93
2018-06-12T20:04:23.279Z,31.32
2018-06-12T20:06:56.319Z,31.73
2018-06-12T20:09:28.861Z,31.36
2018-06-12T20:12:01.518Z,31.66
2018-06-12T20:16:58.714Z,31.90
2018-06-12T20:19:31.608Z,31.60
2018-06-12T20:22:04.527Z,31.57
2018-06-12T20:24:37.721Z,32.37
2018-06-12T20:27:11.253Z,32.36
2018-06-12T20:29:43.799Z,31.58
2018-06-12T20:32:17.090Z,32.51
2018-06-12T20:34:49.709Z,33.01
2018-06-12T20:37:22.495Z,31.53
2018-06-12T20:39:55.613Z,32.50
2018-06-12T20:42:28.595Z,31.56
2018-06-12T20:45:01.295Z,32.51
2018-06-12T20:47:34.192Z,32.21
2018-06-12T20:50:07.379Z,32.03
2018-06-12T20:52:40.632Z,32.71
2018-06-12T20:55:13.604Z,32.01
2018-06-12T20:57:45.950Z,32.65
2018-06-12T21:00:19.487Z,33.50
2018-06-12T21:02:52.168Z,33.30
2018-06-12T21:05:25.866Z,33.35
2018-06-12T21:07:58.913Z,33.51
2018-06-12T21:10:30.878Z,32.09
2018-06-12T21:13:04.244Z,33.17
2018-06-12T21:15:37.324Z,32.47
2018-06-12T21:18:10.519Z,33.02
2018-06-12T21:20:42.686Z,32.23
2018-06-12T21:23:15.688Z,32.52
2018-06-12T21:25:48.334Z,33.12
2018-06-12T21:28:20.852Z,33.49
2018-06-12T21:30:53.893Z,33.21
2018-06-12T21:33:26.091Z,32.25
2018-06-12T21:35:59.135Z,32.74
2018-06-12T21:38:31.771Z,32.89
2018-06-12T21:41:04.943Z,33.35
2018-06-12T21:43:37.770Z,33.27
2018-06-12T21:46:10.995Z,33.39
2018-06-12T21:48:43.474Z,33.25
2018-06-12T21:53:46.820Z,34.25
2018-06-12T21:56:19.421Z,33.56
2018-06-12T21:58:52.348Z,33.63
2018-06-12T22:01:25.081Z,33.03
2018-06-12T22:03:57.990Z,32.90
2018-06-12T22:06:31.619Z,32.87
2018-06-12T22:09:05.386Z,32.91
2018-06-12T22:11:37.707Z,33.64
2018-06-12T22:14:10.320Z,33.44
2018-06-12T22:16:42.832Z,33.33
2018-06-12T22:19:15.773Z,33.49
2018-06-12T22:21:48.912Z,34.07
2018-06-12T22:24:21.658Z,34.12
2018-06-12T22:26:53.834Z,32.98
2018-06-12T22:29:27.040Z,33.03
2018-06-12T22:31:59.657Z,33.29
2018-06-12T22:34:32.917Z,33.67
2018-06-12T22:37:05.459Z,34.11
2018-06-12T22:39:38.424Z,33.18
2018-06-12T22:42:11.317Z,33.73
2018-06-12T22:44:43.841Z,33.03
2018-06-12T22:47:16.049Z,33.46
2018-06-12T22:49:48.801Z,34.30
2018-06-12T22:52:21.444Z,33.70
2018-06-12T22:54:53.696Z,33.71
2018-06-12T22:57:26.304Z,33.93
2018-06-12T22:59:58.852Z,33.24
2018-06-12T23:02:31.747Z,34.11
2018-06-12T23:05:04.968Z,33.76
2018-06-12T23:07:37.452Z,34.22
2018-06-12T23:10:09.687Z,33.44
2018-06-12T23:12:42.308Z,34.42
2018-06-12T23:15:15.268Z,33.52
2018-06-12T23:17:47.771Z,34.31
2018-06-12T23:20:30.057Z,34.04
2018-06-12T23:23:02.891Z,33.68
2018-06-12T23:25:36.164Z,33.43
2018-06-12T23:28:08.602Z,33.59
2018-06-12T23:30:41.605Z,34.33
2018-06-12T23:33:13.731Z,34.07
2018-06-12T23:35:45.894Z,34.10
2018-06-12T23:38:18.524Z,34.07
2018-06-12T23:40:50.631Z,33.79
2018-06-12T23:43:23.863Z,33.48
2018-06-12T23:45:56.257Z,33.04
2018-06-12T23:48:29.220Z,32.84
2018-06-12T23:51:01.348Z,34.25
2018-06-12T23:53:34.555Z,33.93
2018-06-12T23:56:07.501Z,34.27
2018-06-12T23:58:40.287Z,33.70
